createdAt,value
2018-11-07T00:00:31.580Z,14.20
2018-11-07T00:02:59.218Z,14.30
2018-11-07T00:05:26.777Z,14.53
2018-11-07T00:07:54.424Z,14.98
2018-11-07T00:10:21.974Z,13.20
2018-11-07T00:12:49.550Z,14.23
2018-11-07T00:15:17.190Z,15.83
2018-11-07T00:17:44.768Z,14.93
2018-11-07T00:20:12.750Z,15.10
2018-11-07T00:22:40.332Z,13.58
2018-11-07T00:25:09.206Z,12.95
2018-11-07T00:27:36.886Z,13.18
2018-11-07T00:30:05.710Z,13.05
2018-11-07T00:32:33.295Z,13.20
2018-11-07T00:35:00.873Z,14.58
2018-11-07T00:37:28.492Z,14.50
2018-11-07T00:39:56.080Z,13.00
2018-11-07T00:42:23.739Z,14.75
2018-11-07T00:44:51.326Z,13.88
2018-11-07T00:47:18.878Z,15.35
2018-11-07T00:49:46.440Z,15.38
2018-11-07T00:52:14.059Z,13.50
2018-11-07T00:54:41.642Z,13.83
2018-11-07T00:57:09.351Z,15.30
2018-11-07T00:59:37.064Z,15.38
2018-11-07T01:02:04.868Z,14.70
2018-11-07T01:04:32.418Z,14.23
2018-11-07T01:06:59.958Z,14.03
2018-11-07T01:09:27.653Z,13.30
2018-11-07T01:11:55.155Z,15.18
2018-11-07T01:14:22.751Z,13.55
2018-11-07T01:16:50.429Z,12.60
2018-11-07T01:19:18.054Z,12.90
2018-11-07T01:21:45.749Z,13.32
2018-11-07T01:24:13.518Z,14.65
2018-11-07T01:26:41.167Z,14.15
2018-11-07T01:29:08.769Z,14.95
2018-11-07T01:31:36.399Z,14.30
2018-11-07T01:34:04.083Z,15.20
2018-11-07T01:36:31.684Z,16.37
2018-11-07T01:38:59.196Z,12.75
2018-11-07T01:41:26.719Z,13.38
2018-11-07T01:43:54.323Z,12.93
2018-11-07T01:46:21.922Z,11.30
2018-11-07T01:48:49.505Z,14.15
2018-11-07T01:51:17.074Z,12.60
2018-11-07T01:53:44.658Z,13.68
2018-11-07T01:56:12.286Z,13.80
2018-11-07T01:58:39.979Z,12.50
2018-11-07T02:01:07.910Z,13.45
2018-11-07T02:03:35.459Z,13.83
2018-11-07T02:06:03.154Z,13.70
2018-11-07T02:08:31.395Z,13.80
2018-11-07T02:10:59.686Z,13.10
2018-11-07T02:13:27.262Z,12.10
2018-11-07T02:15:54.862Z,14.35
2018-11-07T02:18:22.452Z,15.35
2018-11-07T02:20:50.050Z,13.78
2018-11-07T02:23:17.631Z,13.88
2018-11-07T02:25:45.230Z,12.73
2018-11-07T02:28:12.826Z,10.40
2018-11-07T02:30:40.386Z,11.20
2018-11-07T02:33:08.012Z,11.00
2018-11-07T02:35:35.579Z,10.25
2018-11-07T02:38:03.234Z,11.75
2018-11-07T02:40:30.771Z,10.75
2018-11-07T02:42:58.340Z,9.90
2018-11-07T02:45:25.878Z,9.30
2018-11-07T02:47:53.446Z,10.30
2018-11-07T02:50:20.996Z,12.47
2018-11-07T02:52:48.540Z,11.12
2018-11-07T02:55:16.082Z,10.95
2018-11-07T02:57:43.639Z,10.65
2018-11-07T03:00:12.619Z,11.03
2018-11-07T03:02:40.192Z,10.75
2018-11-07T03:05:08.171Z,12.00
2018-11-07T03:07:36.240Z,12.25
2018-11-07T03:10:05.186Z,12.35
2018-11-07T03:12:32.763Z,11.95
2018-11-07T03:15:00.355Z,12.50
2018-11-07T03:17:27.930Z,12.53
2018-11-07T03:19:55.487Z,12.15
2018-11-07T03:22:23.046Z,11.57
2018-11-07T03:24:50.656Z,11.43
2018-11-07T03:27:18.193Z,10.15
2018-11-07T03:29:45.758Z,10.15
2018-11-07T03:32:13.287Z,10.50
2018-11-07T03:34:40.841Z,11.35
2018-11-07T03:37:08.412Z,12.05
2018-11-07T03:39:36.038Z,11.25
2018-11-07T03:42:03.634Z,10.60
2018-11-07T03:44:31.157Z,10.03
2018-11-07T03:46:58.734Z,9.88
2018-11-07T03:49:26.283Z,10.95
2018-11-07T03:51:53.775Z,11.53
2018-11-07T03:54:21.335Z,12.47
2018-11-07T03:56:48.869Z,10.95
2018-11-07T03:59:16.429Z,12.68
2018-11-07T04:01:43.962Z,12.55
2018-11-07T04:04:11.511Z,14.18
2018-11-07T04:06:39.109Z,12.25
2018-11-07T04:09:08.863Z,11.45
2018-11-07T04:11:36.425Z,11.83
2018-11-07T04:14:04.144Z,11.73
2018-11-07T04:16:31.686Z,11.68
2018-11-07T04:18:59.201Z,12.63
2018-11-07T04:21:26.757Z,10.80
2018-11-07T04:24:00.807Z,12.23
2018-11-07T04:26:28.614Z,10.50
2018-11-07T04:28:56.254Z,11.50
2018-11-07T04:31:23.900Z,12.23
2018-11-07T04:33:51.460Z,13.05
2018-11-07T04:36:18.982Z,13.75
2018-11-07T04:38:46.699Z,12.95
2018-11-07T04:41:14.376Z,12.73
2018-11-07T04:43:41.935Z,12.53
2018-11-07T04:46:09.464Z,13.93
2018-11-07T04:48:37.033Z,13.20
2018-11-07T04:51:04.733Z,13.53
2018-11-07T04:53:32.295Z,12.40
2018-11-07T04:55:59.891Z,13.58
2018-11-07T04:58:27.588Z,14.13
2018-11-07T05:00:55.133Z,14.05
2018-11-07T05:03:23.383Z,13.85
2018-11-07T05:05:50.957Z,13.08
2018-11-07T05:08:18.535Z,13.03
2018-11-07T05:10:46.148Z,10.60
2018-11-07T05:13:13.760Z,10.58
2018-11-07T05:15:41.328Z,10.60
2018-11-07T05:18:08.913Z,10.08
2018-11-07T05:20:36.491Z,11.65
2018-11-07T05:23:04.299Z,10.58
2018-11-07T05:25:31.841Z,11.05
2018-11-07T05:27:59.359Z,12.50
2018-11-07T05:30:26.939Z,12.58
2018-11-07T05:32:54.481Z,12.70
2018-11-07T05:35:22.045Z,12.03
2018-11-07T05:37:49.633Z,13.20
2018-11-07T05:40:17.192Z,12.15
2018-11-07T05:42:44.751Z,11.95
2018-11-07T05:45:12.413Z,11.48
2018-11-07T05:47:40.450Z,12.47
2018-11-07T05:50:08.829Z,12.75
2018-11-07T05:52:36.528Z,11.70
2018-11-07T05:55:04.676Z,12.80
2018-11-07T05:57:32.235Z,11.75
2018-11-07T06:00:00.100Z,12.00
2018-11-07T06:02:27.832Z,10.98
2018-11-07T06:04:55.483Z,11.73
2018-11-07T06:07:23.123Z,12.30
2018-11-07T06:09:50.715Z,11.08
2018-11-07T06:12:18.312Z,11.00
2018-11-07T06:14:45.899Z,11.65
2018-11-07T06:17:13.512Z,9.98
2018-11-07T06:19:41.151Z,10.65
2018-11-07T06:22:08.834Z,11.50
2018-11-07T06:24:36.444Z,12.10
2018-11-07T06:27:04.008Z,12.47
2018-11-07T06:29:31.575Z,11.83
2018-11-07T06:31:59.189Z,12.90
2018-11-07T06:34:26.789Z,13.00
2018-11-07T06:36:54.356Z,13.58
2018-11-07T06:39:21.938Z,16.05
2018-11-07T06:41:49.554Z,15.30
2018-11-07T06:44:17.243Z,13.05
2018-11-07T06:46:44.799Z,11.38
2018-11-07T06:49:12.568Z,12.73
2018-11-07T06:51:40.192Z,10.13
2018-11-07T06:54:07.826Z,11.90
2018-11-07T06:56:35.480Z,11.48
2018-11-07T06:59:03.088Z,10.98
2018-11-07T07:01:30.737Z,10.23
2018-11-07T07:03:58.316Z,12.07
2018-11-07T07:06:25.949Z,11.50
2018-11-07T07:08:53.566Z,11.83
2018-11-07T07:11:21.152Z,12.20
2018-11-07T07:13:48.772Z,10.05
2018-11-07T07:16:16.387Z,10.48
2018-11-07T07:18:43.933Z,10.32
2018-11-07T07:21:11.546Z,10.23
2018-11-07T07:23:39.142Z,10.93
2018-11-07T07:26:06.772Z,11.08
2018-11-07T07:28:34.338Z,10.50
2018-11-07T07:31:02.001Z,11.38
2018-11-07T07:33:29.650Z,10.80
2018-11-07T07:35:57.314Z,11.10
2018-11-07T07:38:25.066Z,11.83
2018-11-07T07:40:52.649Z,11.43
2018-11-07T07:43:20.238Z,11.88
2018-11-07T07:45:47.908Z,11.15
2018-11-07T07:48:15.457Z,11.85
2018-11-07T07:50:43.102Z,11.65
2018-11-07T07:53:10.750Z,12.20
2018-11-07T07:55:38.390Z,12.13
2018-11-07T07:58:06.014Z,11.45
2018-11-07T08:00:33.601Z,10.80
2018-11-07T08:03:01.233Z,11.08
2018-11-07T08:05:28.756Z,10.18
2018-11-07T08:07:56.387Z,10.25
2018-11-07T08:10:23.942Z,11.70
2018-11-07T08:12:51.696Z,11.68
2018-11-07T08:15:19.389Z,11.25
2018-11-07T08:17:46.970Z,11.83
2018-11-07T08:20:15.711Z,11.22
2018-11-07T08:22:44.171Z,12.63
2018-11-07T08:25:11.779Z,12.37
2018-11-07T08:27:39.389Z,11.85
2018-11-07T08:30:10.132Z,12.28
2018-11-07T08:32:37.788Z,12.55
2018-11-07T08:35:06.572Z,12.05
2018-11-07T08:37:34.235Z,13.53
2018-11-07T08:40:02.009Z,12.10
2018-11-07T08:42:29.656Z,10.95
2018-11-07T08:44:57.300Z,12.33
2018-11-07T08:47:24.908Z,12.75
2018-11-07T08:49:52.552Z,13.55
2018-11-07T08:52:20.146Z,12.40
2018-11-07T08:54:47.782Z,10.95
2018-11-07T08:57:15.393Z,11.88
2018-11-07T08:59:43.028Z,11.18
2018-11-07T09:02:10.655Z,12.15
2018-11-07T09:04:38.193Z,11.20
2018-11-07T09:07:05.931Z,12.80
2018-11-07T09:09:33.545Z,12.37
2018-11-07T09:12:01.184Z,12.90
2018-11-07T09:14:28.801Z,12.23
2018-11-07T09:16:56.355Z,12.80
2018-11-07T09:19:24.008Z,13.05
2018-11-07T09:21:51.652Z,14.38
2018-11-07T09:24:19.268Z,12.37
2018-11-07T09:26:46.831Z,13.78
2018-11-07T09:29:14.495Z,14.40
2018-11-07T09:31:42.044Z,13.50
2018-11-07T09:34:09.617Z,12.43
2018-11-07T09:36:37.251Z,15.20
2018-11-07T09:39:06.956Z,12.28
2018-11-07T09:44:08.922Z,14.23
2018-11-07T09:46:43.226Z,13.30
2018-11-07T09:49:11.172Z,14.87
2018-11-07T09:51:38.785Z,14.30
2018-11-07T09:54:06.482Z,12.53
2018-11-07T09:56:34.080Z,13.93
2018-11-07T09:59:01.804Z,13.68
2018-11-07T10:01:29.365Z,12.98
2018-11-07T10:03:57.779Z,14.47
2018-11-07T10:06:25.395Z,14.63
2018-11-07T10:08:52.959Z,14.03
2018-11-07T10:11:20.513Z,13.60
2018-11-07T10:13:48.098Z,14.05
2018-11-07T10:16:15.697Z,13.08
2018-11-07T10:18:43.373Z,13.05
2018-11-07T10:21:10.984Z,13.60
2018-11-07T10:23:38.573Z,15.15
2018-11-07T10:26:06.161Z,14.30
2018-11-07T10:28:33.865Z,15.53
2018-11-07T10:31:01.491Z,14.30
2018-11-07T10:33:29.121Z,14.35
2018-11-07T10:35:56.704Z,16.57
2018-11-07T10:38:24.303Z,13.70
2018-11-07T10:40:51.892Z,14.50
2018-11-07T10:43:19.537Z,15.05
2018-11-07T10:45:47.159Z,14.40
2018-11-07T10:48:14.805Z,15.15
2018-11-07T10:50:42.417Z,14.90
2018-11-07T10:53:10.016Z,15.88
2018-11-07T10:55:37.667Z,14.80
2018-11-07T10:58:05.356Z,13.57
2018-11-07T11:00:38.617Z,13.57
2018-11-07T11:03:11.937Z,13.00
2018-11-07T11:05:39.757Z,14.13
2018-11-07T11:08:07.823Z,12.85
2018-11-07T11:10:35.536Z,12.43
2018-11-07T11:13:03.309Z,13.03
2018-11-07T11:15:30.959Z,13.63
2018-11-07T11:17:58.544Z,14.23
2018-11-07T11:20:26.205Z,13.00
2018-11-07T11:22:53.874Z,13.00
2018-11-07T11:25:21.479Z,11.37
2018-11-07T11:27:49.148Z,11.20
2018-11-07T11:30:16.867Z,11.33
2018-11-07T11:32:44.442Z,10.43
2018-11-07T11:35:12.207Z,9.03
2018-11-07T11:37:40.159Z,9.00
2018-11-07T11:40:09.875Z,10.40
2018-11-07T11:42:37.493Z,9.17
2018-11-07T11:45:06.404Z,10.73
2018-11-07T11:47:33.976Z,10.20
2018-11-07T11:50:01.653Z,10.10
2018-11-07T11:52:29.288Z,9.40
2018-11-07T11:54:56.924Z,9.37
2018-11-07T11:57:24.558Z,9.53
2018-11-07T11:59:59.045Z,8.10
2018-11-07T12:02:26.654Z,9.10
2018-11-07T12:04:54.192Z,8.63
2018-11-07T12:07:21.762Z,10.40
2018-11-07T12:09:49.452Z,10.70
2018-11-07T12:12:17.147Z,9.37
2018-11-07T12:14:44.805Z,10.17
2018-11-07T12:17:12.431Z,9.83
2018-11-07T12:19:40.013Z,8.40
2018-11-07T12:22:07.627Z,9.43
2018-11-07T12:24:35.308Z,10.13
2018-11-07T12:27:03.035Z,10.57
2018-11-07T12:29:30.508Z,11.70
2018-11-07T12:31:58.137Z,10.43
2018-11-07T12:34:25.707Z,12.20
2018-11-07T12:36:53.340Z,11.03
2018-11-07T12:39:20.978Z,11.53
2018-11-07T12:41:48.641Z,10.60
2018-11-07T12:44:16.467Z,12.00
2018-11-07T12:46:44.258Z,10.43
2018-11-07T12:49:11.880Z,11.50
2018-11-07T12:51:39.508Z,11.83
2018-11-07T12:54:08.146Z,11.27
2018-11-07T12:56:37.096Z,10.93
2018-11-07T12:59:04.739Z,11.00
2018-11-07T13:01:32.405Z,11.40
2018-11-07T13:04:00.000Z,11.67
2018-11-07T13:06:27.653Z,11.47
2018-11-07T13:08:55.270Z,11.00
2018-11-07T13:11:22.902Z,11.60
2018-11-07T13:13:50.522Z,11.50
2018-11-07T13:16:18.211Z,10.57
2018-11-07T13:18:45.848Z,12.27
2018-11-07T13:21:13.469Z,11.30
2018-11-07T13:23:41.192Z,10.87
2018-11-07T13:26:08.812Z,11.20
2018-11-07T13:28:36.555Z,14.37
2018-11-07T13:31:04.080Z,12.53
2018-11-07T13:33:31.663Z,12.10
2018-11-07T13:35:59.264Z,11.50
2018-11-07T13:38:27.329Z,12.10
2018-11-07T13:40:55.266Z,13.27
2018-11-07T13:43:22.807Z,12.80
2018-11-07T13:45:50.488Z,12.50
2018-11-07T13:48:18.193Z,13.30
2018-11-07T13:50:45.759Z,11.50
2018-11-07T13:53:13.391Z,11.60
2018-11-07T13:55:41.022Z,11.73
2018-11-07T13:58:08.607Z,12.80
2018-11-07T14:00:36.250Z,12.13
2018-11-07T14:03:03.901Z,11.10
2018-11-07T14:05:31.694Z,11.60
2018-11-07T14:07:59.162Z,11.57
2018-11-07T14:10:26.828Z,12.60
2018-11-07T14:12:54.934Z,12.57
2018-11-07T14:15:22.749Z,11.07
2018-11-07T14:17:50.771Z,11.60
2018-11-07T14:20:18.482Z,12.80
2018-11-07T14:22:46.176Z,11.50
2018-11-07T14:25:14.016Z,11.20
2018-11-07T14:27:42.304Z,11.37
2018-11-07T14:30:12.363Z,11.53
2018-11-07T14:32:53.956Z,11.87
2018-11-07T14:35:21.981Z,11.87
2018-11-07T14:37:49.719Z,11.23
2018-11-07T14:40:17.383Z,12.30
2018-11-07T14:42:45.017Z,10.77
2018-11-07T14:45:12.720Z,12.10
2018-11-07T14:47:41.224Z,11.10
2018-11-07T14:50:09.637Z,10.63
2018-11-07T14:52:38.159Z,10.40
2018-11-07T14:55:06.106Z,10.83
2018-11-07T14:57:34.230Z,10.47
2018-11-07T15:00:02.288Z,11.47
2018-11-07T15:02:29.932Z,10.90
2018-11-07T15:04:57.530Z,11.63
2018-11-07T15:07:25.217Z,10.70
2018-11-07T15:09:53.223Z,12.20
2018-11-07T15:12:20.885Z,11.57
2018-11-07T15:14:48.547Z,10.30
2018-11-07T15:17:16.291Z,11.30
2018-11-07T15:19:43.887Z,11.30
2018-11-07T15:22:11.534Z,10.77
2018-11-07T15:24:39.177Z,10.67
2018-11-07T15:27:07.177Z,12.57
2018-11-07T15:29:34.806Z,11.80
2018-11-07T15:32:02.442Z,11.63
2018-11-07T15:34:30.057Z,11.13
2018-11-07T15:36:57.723Z,11.90
2018-11-07T15:39:25.318Z,12.23
2018-11-07T15:41:52.902Z,11.70
2018-11-07T15:44:20.607Z,12.53
2018-11-07T15:46:48.185Z,12.57
2018-11-07T15:49:15.823Z,11.40
2018-11-07T15:51:43.391Z,11.53
2018-11-07T15:54:11.047Z,12.23
2018-11-07T15:56:38.709Z,14.37
2018-11-07T15:59:06.414Z,12.23
2018-11-07T16:01:34.058Z,12.00
2018-11-07T16:04:02.340Z,11.50
2018-11-07T16:06:29.979Z,11.80
2018-11-07T16:08:58.507Z,12.20
2018-11-07T16:11:27.437Z,12.55
2018-11-07T16:13:55.356Z,12.43
2018-11-07T16:16:22.976Z,11.97
2018-11-07T16:18:50.598Z,13.38
2018-11-07T16:21:18.226Z,12.88
2018-11-07T16:23:46.517Z,13.03
2018-11-07T16:26:14.398Z,12.95
2018-11-07T16:28:42.257Z,11.78
2018-11-07T16:31:11.620Z,11.80
2018-11-07T16:33:39.304Z,10.93
2018-11-07T16:36:06.944Z,10.85
2018-11-07T16:38:34.664Z,13.22
2018-11-07T16:41:02.510Z,14.83
2018-11-07T16:43:30.130Z,14.60
2018-11-07T16:45:57.781Z,13.13
2018-11-07T16:48:25.520Z,11.35
2018-11-07T16:50:53.148Z,12.85
2018-11-07T16:53:20.752Z,13.68
2018-11-07T16:55:48.402Z,13.98
2018-11-07T16:58:16.091Z,15.03
2018-11-07T17:00:43.818Z,18.37
2018-11-07T17:03:11.469Z,26.15
2018-11-07T17:05:39.728Z,23.55
2018-11-07T17:10:28.713Z,22.48
2018-11-07T17:12:56.363Z,19.70
2018-11-07T17:15:24.043Z,21.45
2018-11-07T17:17:51.704Z,20.70
2018-11-07T17:20:19.347Z,20.77
2018-11-07T17:22:47.052Z,20.97
2018-11-07T17:25:16.444Z,19.67
2018-11-07T17:27:44.221Z,18.00
2018-11-07T17:30:12.874Z,20.05
2018-11-07T17:32:40.653Z,19.20
2018-11-07T17:35:10.240Z,19.05
2018-11-07T17:37:37.961Z,16.75
2018-11-07T17:40:09.877Z,15.98
2018-11-07T17:42:37.884Z,18.25
2018-11-07T17:45:09.011Z,14.47
2018-11-07T17:47:36.785Z,14.20
2018-11-07T17:50:05.233Z,16.23
2018-11-07T17:52:32.903Z,20.88
2018-11-07T17:55:00.535Z,14.63
2018-11-07T17:57:28.135Z,14.70
2018-11-07T17:59:55.814Z,13.53
2018-11-07T18:02:23.397Z,20.45
2018-11-07T18:04:50.985Z,24.75
2018-11-07T18:07:18.618Z,31.75
2018-11-07T18:09:46.286Z,44.20
2018-11-07T18:12:13.951Z,28.70
2018-11-07T18:14:41.605Z,22.07
2018-11-07T18:17:09.348Z,20.43
2018-11-07T18:19:37.132Z,16.90
2018-11-07T18:22:05.100Z,19.45
2018-11-07T18:24:32.770Z,23.05
2018-11-07T18:27:00.437Z,17.80
2018-11-07T18:29:28.212Z,14.70
2018-11-07T18:31:55.988Z,16.20
2018-11-07T18:34:23.725Z,14.70
2018-11-07T18:36:51.425Z,14.70
2018-11-07T18:39:19.157Z,15.35
2018-11-07T18:41:46.836Z,14.93
2018-11-07T18:44:14.629Z,15.63
2018-11-07T18:46:42.290Z,15.63
2018-11-07T18:49:09.912Z,15.08
2018-11-07T18:51:37.627Z,16.62
2018-11-07T18:54:05.884Z,15.03
2018-11-07T18:56:33.765Z,15.35
2018-11-07T18:59:01.675Z,20.10
2018-11-07T19:01:29.312Z,20.25
2018-11-07T19:03:57.006Z,21.62
2018-11-07T19:06:24.645Z,21.27
2018-11-07T19:08:52.769Z,20.90
2018-11-07T19:11:20.524Z,20.10
2018-11-07T19:13:48.296Z,21.05
2018-11-07T19:16:16.152Z,23.62
2018-11-07T19:18:43.981Z,25.70
2018-11-07T19:21:11.676Z,21.85
2018-11-07T19:23:40.216Z,22.75
2018-11-07T19:26:08.046Z,23.05
2018-11-07T19:28:36.066Z,23.83
2018-11-07T19:31:04.212Z,23.10
2018-11-07T19:33:32.037Z,23.25
2018-11-07T19:35:59.978Z,22.15
2018-11-07T19:38:27.670Z,21.55
2018-11-07T19:40:55.413Z,22.58
2018-11-07T19:43:23.228Z,21.87
2018-11-07T19:45:51.183Z,22.80
2018-11-07T19:48:19.021Z,22.07
2018-11-07T19:50:46.893Z,20.88
2018-11-07T19:53:14.651Z,22.37
2018-11-07T19:55:42.401Z,22.22
2018-11-07T19:58:10.251Z,20.65
2018-11-07T20:00:38.169Z,22.37
2018-11-07T20:03:05.936Z,21.52
2018-11-07T20:05:33.637Z,22.80
2018-11-07T20:08:01.496Z,23.12
2018-11-07T20:10:29.290Z,19.95
2018-11-07T20:12:56.911Z,22.32
2018-11-07T20:15:24.632Z,22.40
2018-11-07T20:17:52.474Z,22.82
2018-11-07T20:20:20.229Z,23.05
2018-11-07T20:22:48.056Z,23.75
2018-11-07T20:25:16.028Z,23.87
2018-11-07T20:27:44.295Z,24.65
2018-11-07T20:30:14.319Z,22.82
2018-11-07T20:32:42.296Z,24.05
2018-11-07T20:35:11.608Z,23.67
2018-11-07T20:37:39.951Z,26.95
2018-11-07T20:40:09.789Z,25.92
2018-11-07T20:42:37.548Z,25.92
2018-11-07T20:45:05.926Z,25.90
2018-11-07T20:47:33.629Z,23.87
2018-11-07T20:50:01.345Z,23.83
2018-11-07T20:52:29.033Z,24.27
2018-11-07T20:54:56.819Z,22.22
2018-11-07T20:57:24.570Z,20.62
2018-11-07T20:59:52.175Z,21.42
2018-11-07T21:02:19.836Z,21.37
2018-11-07T21:04:47.470Z,22.52
2018-11-07T21:07:15.142Z,21.50
2018-11-07T21:09:42.780Z,28.87
2018-11-07T21:12:10.473Z,33.75
2018-11-07T21:14:38.127Z,32.30
2018-11-07T21:17:06.138Z,28.87
2018-11-07T21:19:33.897Z,25.75
2018-11-07T21:22:01.563Z,24.37
2018-11-07T21:24:29.191Z,24.92
2018-11-07T21:26:56.853Z,23.02
2018-11-07T21:29:24.523Z,22.55
2018-11-07T21:31:52.206Z,23.92
2018-11-07T21:34:19.859Z,25.02
2018-11-07T21:36:47.502Z,25.65
2018-11-07T21:39:15.204Z,25.08
2018-11-07T21:41:42.895Z,24.75
2018-11-07T21:44:10.504Z,22.42
2018-11-07T21:46:38.144Z,23.73
2018-11-07T21:49:05.798Z,20.23
2018-11-07T21:51:33.425Z,20.75
2018-11-07T21:54:01.037Z,19.48
2018-11-07T21:56:28.666Z,20.40
2018-11-07T21:58:56.270Z,20.32
2018-11-07T22:01:23.899Z,20.08
2018-11-07T22:03:51.496Z,19.73
2018-11-07T22:06:19.062Z,20.97
2018-11-07T22:08:46.739Z,21.40
2018-11-07T22:11:14.356Z,21.48
2018-11-07T22:13:41.944Z,23.20
2018-11-07T22:16:09.536Z,24.50
2018-11-07T22:18:37.143Z,21.60
2018-11-07T22:21:05.161Z,22.75
2018-11-07T22:23:32.748Z,20.88
2018-11-07T22:26:00.358Z,19.35
2018-11-07T22:28:27.963Z,19.57
2018-11-07T22:30:55.568Z,20.20
2018-11-07T22:33:29.729Z,19.40
2018-11-07T22:35:57.374Z,20.08
2018-11-07T22:38:24.978Z,20.65
2018-11-07T22:40:52.592Z,20.82
2018-11-07T22:43:20.187Z,20.35
2018-11-07T22:45:47.777Z,23.22
2018-11-07T22:48:15.358Z,22.90
2018-11-07T22:50:42.929Z,26.20
2018-11-07T22:53:10.553Z,26.37
2018-11-07T22:55:38.119Z,26.15
2018-11-07T22:58:05.759Z,26.12
2018-11-07T23:00:39.072Z,25.82
2018-11-07T23:03:06.649Z,24.95
2018-11-07T23:05:34.370Z,26.17
2018-11-07T23:08:01.986Z,26.12
2018-11-07T23:10:29.630Z,27.90
2018-11-07T23:12:57.241Z,25.48
2018-11-07T23:15:30.577Z,22.80
2018-11-07T23:17:58.203Z,22.17
2018-11-07T23:20:25.830Z,20.90
2018-11-07T23:22:53.565Z,21.50
2018-11-07T23:25:21.238Z,20.30
2018-11-07T23:27:48.851Z,21.80
2018-11-07T23:30:16.541Z,21.20
2018-11-07T23:32:44.085Z,20.02
2018-11-07T23:35:11.723Z,20.77
2018-11-07T23:37:39.329Z,19.52
2018-11-07T23:40:07.036Z,18.80
2018-11-07T23:42:34.629Z,20.55
2018-11-07T23:45:02.258Z,24.00
2018-11-07T23:47:29.889Z,28.90
2018-11-07T23:49:57.441Z,30.80
2018-11-07T23:52:30.720Z,30.05
2018-11-07T23:54:58.317Z,27.10
2018-11-07T23:57:25.926Z,23.90
2018-11-07T23:59:53.481Z,25.97
